sensor_id;sensor_type;location;lat;lon;timestamp;P1;durP1;ratioP1;P2;durP2;ratioP2
6386;SDS011;3226;42.162;24.756;2023-07-22T00:01:38;6.47;;;6.17;;
6386;SDS011;3226;42.162;24.756;2023-07-22T00:04:06;7.03;;;6.73;;
6386;SDS011;3226;42.162;24.756;2023-07-22T00:06:34;7.67;;;7.37;;
6386;SDS011;3226;42.162;24.756;2023-07-22T00:09:03;8.03;;;7.73;;
6386;SDS011;3226;42.162;24.756;2023-07-22T00:11:32;9.87;;;9.47;;
6386;SDS011;3226;42.162;24.756;2023-07-22T00:14:00;8.50;;;8.13;;
6386;SDS011;3226;42.162;24.756;2023-07-22T00:16:28;6.63;;;6.33;;
6386;SDS011;3226;42.162;24.756;2023-07-22T00:18:56;5.90;;;5.70;;
6386;SDS011;3226;42.162;24.756;2023-07-22T00:21:24;6.43;;;6.13;;
6386;SDS011;3226;42.162;24.756;2023-07-22T00:23:52;6.10;;;5.90;;
6386;SDS011;3226;42.162;24.756;2023-07-22T00:26:21;6.17;;;5.97;;
6386;SDS011;3226;42.162;24.756;2023-07-22T00:28:50;7.27;;;6.97;;
6386;SDS011;3226;42.162;24.756;2023-07-22T00:31:18;5.87;;;5.67;;
6386;SDS011;3226;42.162;24.756;2023-07-22T00:33:47;6.27;;;6.03;;
6386;SDS011;3226;42.162;24.756;2023-07-22T00:36:14;6.43;;;6.13;;
6386;SDS011;3226;42.162;24.756;2023-07-22T00:38:43;6.00;;;5.60;;
6386;SDS011;3226;42.162;24.756;2023-07-22T00:41:11;7.67;;;7.37;;
6386;SDS011;3226;42.162;24.756;2023-07-22T00:43:40;5.97;;;5.77;;
6386;SDS011;3226;42.162;24.756;2023-07-22T00:46:08;5.93;;;5.73;;
6386;SDS011;3226;42.162;24.756;2023-07-22T00:48:36;6.43;;;6.13;;
6386;SDS011;3226;42.162;24.756;2023-07-22T00:51:06;5.93;;;5.73;;
6386;SDS011;3226;42.162;24.756;2023-07-22T00:53:34;5.83;;;5.63;;
6386;SDS011;3226;42.162;24.756;2023-07-22T00:56:02;5.27;;;5.07;;
6386;SDS011;3226;42.162;24.756;2023-07-22T00:58:30;6.57;;;6.27;;
6386;SDS011;3226;42.162;24.756;2023-07-22T01:01:00;6.40;;;6.13;;
6386;SDS011;3226;42.162;24.756;2023-07-22T01:03:28;5.80;;;5.60;;
6386;SDS011;3226;42.162;24.756;2023-07-22T01:05:56;5.77;;;5.57;;
6386;SDS011;3226;42.162;24.756;2023-07-22T01:08:27;6.17;;;5.97;;
6386;SDS011;3226;42.162;24.756;2023-07-22T01:10:55;6.67;;;6.37;;
6386;SDS011;3226;42.162;24.756;2023-07-22T01:13:23;6.70;;;6.40;;
6386;SDS011;3226;42.162;24.756;2023-07-22T01:15:51;6.77;;;6.47;;
6386;SDS011;3226;42.162;24.756;2023-07-22T01:18:21;6.97;;;6.67;;
6386;SDS011;3226;42.162;24.756;2023-07-22T01:20:49;6.70;;;6.40;;
6386;SDS011;3226;42.162;24.756;2023-07-22T01:23:19;6.07;;;5.87;;
6386;SDS011;3226;42.162;24.756;2023-07-22T01:25:47;6.53;;;6.23;;
6386;SDS011;3226;42.162;24.756;2023-07-22T01:28:16;8.07;;;7.67;;
6386;SDS011;3226;42.162;24.756;2023-07-22T01:30:44;6.87;;;6.57;;
6386;SDS011;3226;42.162;24.756;2023-07-22T01:33:12;8.17;;;7.83;;
6386;SDS011;3226;42.162;24.756;2023-07-22T01:35:40;11.00;;;10.50;;
6386;SDS011;3226;42.162;24.756;2023-07-22T01:38:08;9.87;;;9.47;;
6386;SDS011;3226;42.162;24.756;2023-07-22T01:40:38;12.93;;;12.33;;
6386;SDS011;3226;42.162;24.756;2023-07-22T01:43:06;12.67;;;12.10;;
6386;SDS011;3226;42.162;24.756;2023-07-22T01:45:34;10.77;;;10.30;;
6386;SDS011;3226;42.162;24.756;2023-07-22T01:48:02;10.90;;;10.40;;
6386;SDS011;3226;42.162;24.756;2023-07-22T01:50:30;8.87;;;8.47;;
6386;SDS011;3226;42.162;24.756;2023-07-22T01:52:58;9.90;;;9.50;;
6386;SDS011;3226;42.162;24.756;2023-07-22T01:55:26;8.03;;;7.73;;
6386;SDS011;3226;42.162;24.756;2023-07-22T01:57:56;7.97;;;7.67;;
6386;SDS011;3226;42.162;24.756;2023-07-22T02:00:24;8.13;;;7.80;;
6386;SDS011;3226;42.162;24.756;2023-07-22T02:02:53;7.00;;;6.70;;
6386;SDS011;3226;42.162;24.756;2023-07-22T02:05:21;7.43;;;7.13;;
6386;SDS011;3226;42.162;24.756;2023-07-22T02:07:50;6.03;;;5.83;;
6386;SDS011;3226;42.162;24.756;2023-07-22T02:10:19;6.00;;;5.80;;
6386;SDS011;3226;42.162;24.756;2023-07-22T02:12:47;6.70;;;6.40;;
6386;SDS011;3226;42.162;24.756;2023-07-22T02:15:16;6.73;;;6.43;;
6386;SDS011;3226;42.162;24.756;2023-07-22T02:17:44;6.77;;;6.47;;
6386;SDS011;3226;42.162;24.756;2023-07-22T02:20:12;7.10;;;6.80;;
6386;SDS011;3226;42.162;24.756;2023-07-22T02:22:41;6.47;;;6.20;;
6386;SDS011;3226;42.162;24.756;2023-07-22T02:25:09;6.77;;;6.47;;
6386;SDS011;3226;42.162;24.756;2023-07-22T02:27:37;6.97;;;6.67;;
6386;SDS011;3226;42.162;24.756;2023-07-22T02:30:07;6.90;;;6.60;;
6386;SDS011;3226;42.162;24.756;2023-07-22T02:32:39;6.23;;;6.00;;
6386;SDS011;3226;42.162;24.756;2023-07-22T02:35:08;6.50;;;6.20;;
6386;SDS011;3226;42.162;24.756;2023-07-22T02:37:37;5.90;;;5.63;;
6386;SDS011;3226;42.162;24.756;2023-07-22T02:40:06;5.63;;;5.43;;
6386;SDS011;3226;42.162;24.756;2023-07-22T02:42:37;5.73;;;5.53;;
6386;SDS011;3226;42.162;24.756;2023-07-22T02:45:06;6.03;;;5.83;;
6386;SDS011;3226;42.162;24.756;2023-07-22T02:47:35;6.33;;;6.03;;
6386;SDS011;3226;42.162;24.756;2023-07-22T02:50:05;7.47;;;7.17;;
6386;SDS011;3226;42.162;24.756;2023-07-22T02:52:35;8.53;;;8.17;;
6386;SDS011;3226;42.162;24.756;2023-07-22T02:55:03;9.23;;;8.83;;
6386;SDS011;3226;42.162;24.756;2023-07-22T02:57:33;10.80;;;10.30;;
6386;SDS011;3226;42.162;24.756;2023-07-22T03:00:02;12.97;;;12.37;;
6386;SDS011;3226;42.162;24.756;2023-07-22T03:02:34;15.77;;;15.07;;
6386;SDS011;3226;42.162;24.756;2023-07-22T03:05:03;14.93;;;14.27;;
6386;SDS011;3226;42.162;24.756;2023-07-22T03:07:34;11.40;;;10.90;;
6386;SDS011;3226;42.162;24.756;2023-07-22T03:10:03;10.67;;;10.17;;
6386;SDS011;3226;42.162;24.756;2023-07-22T03:12:32;11.93;;;11.43;;
6386;SDS011;3226;42.162;24.756;2023-07-22T03:15:01;13.90;;;13.30;;
6386;SDS011;3226;42.162;24.756;2023-07-22T03:17:31;11.37;;;10.87;;
6386;SDS011;3226;42.162;24.756;2023-07-22T03:19:59;7.73;;;7.43;;
6386;SDS011;3226;42.162;24.756;2023-07-22T03:22:28;7.77;;;7.47;;
6386;SDS011;3226;42.162;24.756;2023-07-22T03:24:57;6.83;;;6.53;;
6386;SDS011;3226;42.162;24.756;2023-07-22T03:27:25;7.67;;;7.37;;
6386;SDS011;3226;42.162;24.756;2023-07-22T03:29:54;9.33;;;8.93;;
6386;SDS011;3226;42.162;24.756;2023-07-22T03:32:22;9.27;;;8.87;;
6386;SDS011;3226;42.162;24.756;2023-07-22T03:34:50;9.20;;;8.80;;
6386;SDS011;3226;42.162;24.756;2023-07-22T03:37:18;8.90;;;8.50;;
6386;SDS011;3226;42.162;24.756;2023-07-22T03:39:48;8.70;;;8.30;;
6386;SDS011;3226;42.162;24.756;2023-07-22T03:42:17;7.03;;;6.73;;
6386;SDS011;3226;42.162;24.756;2023-07-22T03:44:45;6.77;;;6.47;;
6386;SDS011;3226;42.162;24.756;2023-07-22T03:47:13;6.37;;;6.10;;
6386;SDS011;3226;42.162;24.756;2023-07-22T03:49:41;5.83;;;5.63;;
6386;SDS011;3226;42.162;24.756;2023-07-22T03:52:09;6.70;;;6.40;;
6386;SDS011;3226;42.162;24.756;2023-07-22T03:54:40;8.03;;;7.70;;
6386;SDS011;3226;42.162;24.756;2023-07-22T03:57:10;8.03;;;7.73;;
6386;SDS011;3226;42.162;24.756;2023-07-22T03:59:38;8.97;;;8.57;;
6386;SDS011;3226;42.162;24.756;2023-07-22T04:02:07;7.90;;;7.60;;
6386;SDS011;3226;42.162;24.756;2023-07-22T04:04:35;7.07;;;6.77;;
6386;SDS011;3226;42.162;24.756;2023-07-22T04:07:03;8.50;;;8.13;;
6386;SDS011;3226;42.162;24.756;2023-07-22T04:09:34;7.73;;;7.43;;
6386;SDS011;3226;42.162;24.756;2023-07-22T04:12:03;7.13;;;6.83;;
6386;SDS011;3226;42.162;24.756;2023-07-22T04:14:33;6.60;;;6.30;;
6386;SDS011;3226;42.162;24.756;2023-07-22T04:17:01;6.13;;;5.90;;
6386;SDS011;3226;42.162;24.756;2023-07-22T04:19:30;7.27;;;6.97;;
6386;SDS011;3226;42.162;24.756;2023-07-22T04:21:58;7.63;;;7.33;;
6386;SDS011;3226;42.162;24.756;2023-07-22T04:24:30;7.63;;;7.33;;
6386;SDS011;3226;42.162;24.756;2023-07-22T04:26:58;6.73;;;6.43;;
6386;SDS011;3226;42.162;24.756;2023-07-22T04:29:27;8.17;;;7.87;;
6386;SDS011;3226;42.162;24.756;2023-07-22T04:31:58;9.23;;;8.83;;
6386;SDS011;3226;42.162;24.756;2023-07-22T04:34:28;8.97;;;8.57;;
6386;SDS011;3226;42.162;24.756;2023-07-22T04:36:57;6.87;;;6.57;;
6386;SDS011;3226;42.162;24.756;2023-07-22T04:39:25;7.53;;;7.23;;
6386;SDS011;3226;42.162;24.756;2023-07-22T04:41:53;7.53;;;7.23;;
6386;SDS011;3226;42.162;24.756;2023-07-22T04:44:21;6.97;;;6.67;;
6386;SDS011;3226;42.162;24.756;2023-07-22T04:46:50;7.00;;;6.70;;
6386;SDS011;3226;42.162;24.756;2023-07-22T04:49:20;6.27;;;6.03;;
6386;SDS011;3226;42.162;24.756;2023-07-22T04:51:48;5.73;;;5.53;;
6386;SDS011;3226;42.162;24.756;2023-07-22T04:54:17;6.77;;;6.47;;
6386;SDS011;3226;42.162;24.756;2023-07-22T04:56:45;6.53;;;6.23;;
6386;SDS011;3226;42.162;24.756;2023-07-22T04:59:13;7.60;;;7.30;;
6386;SDS011;3226;42.162;24.756;2023-07-22T05:01:42;6.50;;;6.20;;
6386;SDS011;3226;42.162;24.756;2023-07-22T05:04:11;6.73;;;6.43;;
6386;SDS011;3226;42.162;24.756;2023-07-22T05:06:41;6.63;;;6.33;;
6386;SDS011;3226;42.162;24.756;2023-07-22T05:09:09;7.33;;;7.03;;
6386;SDS011;3226;42.162;24.756;2023-07-22T05:11:37;7.23;;;6.93;;
6386;SDS011;3226;42.162;24.756;2023-07-22T05:14:05;7.20;;;6.90;;
6386;SDS011;3226;42.162;24.756;2023-07-22T05:16:33;6.07;;;5.87;;
6386;SDS011;3226;42.162;24.756;2023-07-22T05:19:01;6.33;;;6.03;;
6386;SDS011;3226;42.162;24.756;2023-07-22T05:21:31;6.33;;;6.03;;
6386;SDS011;3226;42.162;24.756;2023-07-22T05:24:00;8.43;;;8.03;;
6386;SDS011;3226;42.162;24.756;2023-07-22T05:26:28;9.70;;;9.30;;
6386;SDS011;3226;42.162;24.756;2023-07-22T05:28:57;8.70;;;8.30;;
6386;SDS011;3226;42.162;24.756;2023-07-22T05:31:25;7.73;;;7.43;;
6386;SDS011;3226;42.162;24.756;2023-07-22T05:33:53;7.03;;;6.73;;
6386;SDS011;3226;42.162;24.756;2023-07-22T05:36:21;7.70;;;7.40;;
6386;SDS011;3226;42.162;24.756;2023-07-22T05:38:50;7.47;;;7.17;;
6386;SDS011;3226;42.162;24.756;2023-07-22T05:41:20;6.50;;;6.20;;
6386;SDS011;3226;42.162;24.756;2023-07-22T05:43:48;7.07;;;6.77;;
6386;SDS011;3226;42.162;24.756;2023-07-22T05:46:16;6.47;;;6.17;;
6386;SDS011;3226;42.162;24.756;2023-07-22T05:48:44;7.70;;;7.40;;
6386;SDS011;3226;42.162;24.756;2023-07-22T05:51:12;6.73;;;6.43;;
6386;SDS011;3226;42.162;24.756;2023-07-22T05:53:41;6.90;;;6.60;;
6386;SDS011;3226;42.162;24.756;2023-07-22T05:56:09;6.63;;;6.33;;
6386;SDS011;3226;42.162;24.756;2023-07-22T05:58:39;6.60;;;6.30;;
6386;SDS011;3226;42.162;24.756;2023-07-22T06:01:07;8.40;;;8.00;;
6386;SDS011;3226;42.162;24.756;2023-07-22T06:03:35;7.43;;;7.13;;
6386;SDS011;3226;42.162;24.756;2023-07-22T06:06:03;7.03;;;6.73;;
6386;SDS011;3226;42.162;24.756;2023-07-22T06:08:31;7.07;;;6.77;;
6386;SDS011;3226;42.162;24.756;2023-07-22T06:10:59;7.23;;;6.93;;
6386;SDS011;3226;42.162;24.756;2023-07-22T06:13:27;7.87;;;7.57;;
6386;SDS011;3226;42.162;24.756;2023-07-22T06:15:57;7.20;;;6.90;;
6386;SDS011;3226;42.162;24.756;2023-07-22T06:18:25;8.27;;;7.87;;
6386;SDS011;3226;42.162;24.756;2023-07-22T06:20:53;8.73;;;8.33;;
6386;SDS011;3226;42.162;24.756;2023-07-22T06:23:21;8.00;;;7.63;;
6386;SDS011;3226;42.162;24.756;2023-07-22T06:25:49;8.63;;;8.23;;
6386;SDS011;3226;42.162;24.756;2023-07-22T06:28:18;7.57;;;7.27;;
6386;SDS011;3226;42.162;24.756;2023-07-22T06:30:46;7.70;;;7.40;;
6386;SDS011;3226;42.162;24.756;2023-07-22T06:33:16;8.43;;;8.03;;
6386;SDS011;3226;42.162;24.756;2023-07-22T06:35:44;7.30;;;7.00;;
6386;SDS011;3226;42.162;24.756;2023-07-22T06:38:16;7.53;;;7.23;;
6386;SDS011;3226;42.162;24.756;2023-07-22T06:40:44;7.57;;;7.27;;
6386;SDS011;3226;42.162;24.756;2023-07-22T06:43:12;8.17;;;7.87;;
6386;SDS011;3226;42.162;24.756;2023-07-22T06:45:40;9.50;;;9.10;;
6386;SDS011;3226;42.162;24.756;2023-07-22T06:48:08;11.47;;;10.97;;
6386;SDS011;3226;42.162;24.756;2023-07-22T06:50:38;8.90;;;8.50;;
6386;SDS011;3226;42.162;24.756;2023-07-22T06:53:06;12.93;;;12.33;;
6386;SDS011;3226;42.162;24.756;2023-07-22T06:55:34;12.87;;;12.27;;
6386;SDS011;3226;42.162;24.756;2023-07-22T06:58:02;11.93;;;11.43;;
6386;SDS011;3226;42.162;24.756;2023-07-22T07:00:30;9.83;;;9.43;;
6386;SDS011;3226;42.162;24.756;2023-07-22T07:02:58;9.30;;;8.90;;
6386;SDS011;3226;42.162;24.756;2023-07-22T07:05:26;8.23;;;7.90;;
6386;SDS011;3226;42.162;24.756;2023-07-22T07:07:56;6.20;;;5.97;;
6386;SDS011;3226;42.162;24.756;2023-07-22T07:10:25;7.43;;;7.13;;
6386;SDS011;3226;42.162;24.756;2023-07-22T07:12:53;8.30;;;7.90;;
6386;SDS011;3226;42.162;24.756;2023-07-22T07:15:22;7.55;;;7.25;;
6386;SDS011;3226;42.162;24.756;2023-07-22T07:17:50;8.90;;;8.50;;
6386;SDS011;3226;42.162;24.756;2023-07-22T07:20:18;7.53;;;7.23;;
6386;SDS011;3226;42.162;24.756;2023-07-22T07:22:46;8.03;;;7.73;;
6386;SDS011;3226;42.162;24.756;2023-07-22T07:25:16;8.70;;;8.30;;
6386;SDS011;3226;42.162;24.756;2023-07-22T07:27:44;9.00;;;8.60;;
6386;SDS011;3226;42.162;24.756;2023-07-22T07:30:12;8.63;;;7.80;;
6386;SDS011;3226;42.162;24.756;2023-07-22T07:32:40;8.63;;;8.23;;
6386;SDS011;3226;42.162;24.756;2023-07-22T07:35:08;7.33;;;7.03;;
6386;SDS011;3226;42.162;24.756;2023-07-22T07:37:37;9.23;;;8.83;;
6386;SDS011;3226;42.162;24.756;2023-07-22T07:40:05;11.90;;;11.40;;
6386;SDS011;3226;42.162;24.756;2023-07-22T07:42:36;8.83;;;8.43;;
6386;SDS011;3226;42.162;24.756;2023-07-22T07:45:04;9.13;;;8.73;;
6386;SDS011;3226;42.162;24.756;2023-07-22T07:47:36;13.73;;;13.13;;
6386;SDS011;3226;42.162;24.756;2023-07-22T07:50:04;11.17;;;10.67;;
6386;SDS011;3226;42.162;24.756;2023-07-22T07:52:33;8.57;;;8.17;;
6386;SDS011;3226;42.162;24.756;2023-07-22T07:55:01;8.83;;;8.43;;
6386;SDS011;3226;42.162;24.756;2023-07-22T07:57:29;7.90;;;7.57;;
6386;SDS011;3226;42.162;24.756;2023-07-22T07:59:59;7.33;;;7.03;;
6386;SDS011;3226;42.162;24.756;2023-07-22T08:02:27;7.70;;;7.40;;
6386;SDS011;3226;42.162;24.756;2023-07-22T08:04:55;7.87;;;7.53;;
6386;SDS011;3226;42.162;24.756;2023-07-22T08:07:23;9.10;;;8.70;;
6386;SDS011;3226;42.162;24.756;2023-07-22T08:09:51;9.63;;;9.23;;
6386;SDS011;3226;42.162;24.756;2023-07-22T08:12:19;10.47;;;9.97;;
6386;SDS011;3226;42.162;24.756;2023-07-22T08:14:47;11.18;;;10.68;;
6386;SDS011;3226;42.162;24.756;2023-07-22T08:17:16;10.77;;;10.27;;
6386;SDS011;3226;42.162;24.756;2023-07-22T08:19:44;9.13;;;8.73;;
6386;SDS011;3226;42.162;24.756;2023-07-22T08:22:12;9.73;;;9.33;;
6386;SDS011;3226;42.162;24.756;2023-07-22T08:24:40;9.17;;;8.77;;
6386;SDS011;3226;42.162;24.756;2023-07-22T08:27:08;9.17;;;8.77;;
6386;SDS011;3226;42.162;24.756;2023-07-22T08:29:36;8.70;;;8.30;;
6386;SDS011;3226;42.162;24.756;2023-07-22T08:32:05;8.57;;;8.17;;
6386;SDS011;3226;42.162;24.756;2023-07-22T08:34:34;8.73;;;8.33;;
6386;SDS011;3226;42.162;24.756;2023-07-22T08:37:02;8.77;;;8.37;;
6386;SDS011;3226;42.162;24.756;2023-07-22T08:39:31;11.13;;;10.63;;
6386;SDS011;3226;42.162;24.756;2023-07-22T08:42:00;11.60;;;11.10;;
6386;SDS011;3226;42.162;24.756;2023-07-22T08:44:31;10.77;;;10.27;;
6386;SDS011;3226;42.162;24.756;2023-07-22T08:47:02;9.03;;;8.63;;
6386;SDS011;3226;42.162;24.756;2023-07-22T08:49:31;8.70;;;8.07;;
6386;SDS011;3226;42.162;24.756;2023-07-22T08:52:03;8.87;;;8.47;;
6386;SDS011;3226;42.162;24.756;2023-07-22T08:54:31;8.20;;;7.80;;
6386;SDS011;3226;42.162;24.756;2023-07-22T08:57:00;9.03;;;8.63;;
6386;SDS011;3226;42.162;24.756;2023-07-22T08:59:29;9.47;;;9.07;;
6386;SDS011;3226;42.162;24.756;2023-07-22T09:01:57;9.83;;;9.40;;
6386;SDS011;3226;42.162;24.756;2023-07-22T09:04:25;8.83;;;8.43;;
6386;SDS011;3226;42.162;24.756;2023-07-22T09:06:53;8.73;;;8.33;;
6386;SDS011;3226;42.162;24.756;2023-07-22T09:09:25;9.70;;;9.23;;
6386;SDS011;3226;42.162;24.756;2023-07-22T09:11:53;8.10;;;7.70;;
6386;SDS011;3226;42.162;24.756;2023-07-22T09:14:22;8.43;;;8.03;;
6386;SDS011;3226;42.162;24.756;2023-07-22T09:17:01;8.67;;;8.27;;
6386;SDS011;3226;42.162;24.756;2023-07-22T09:19:31;10.93;;;10.33;;
6386;SDS011;3226;42.162;24.756;2023-07-22T09:21:59;11.17;;;10.67;;
6386;SDS011;3226;42.162;24.756;2023-07-22T09:24:28;9.33;;;8.93;;
6386;SDS011;3226;42.162;24.756;2023-07-22T09:26:57;8.40;;;8.00;;
6386;SDS011;3226;42.162;24.756;2023-07-22T09:29:32;8.17;;;7.87;;
6386;SDS011;3226;42.162;24.756;2023-07-22T09:32:01;7.57;;;7.27;;
6386;SDS011;3226;42.162;24.756;2023-07-22T09:34:31;7.83;;;7.53;;
6386;SDS011;3226;42.162;24.756;2023-07-22T09:36:59;8.67;;;8.27;;
6386;SDS011;3226;42.162;24.756;2023-07-22T09:39:29;7.60;;;7.30;;
6386;SDS011;3226;42.162;24.756;2023-07-22T09:41:57;8.73;;;8.33;;
6386;SDS011;3226;42.162;24.756;2023-07-22T09:44:29;12.13;;;11.63;;
6386;SDS011;3226;42.162;24.756;2023-07-22T09:46:57;12.23;;;11.70;;
6386;SDS011;3226;42.162;24.756;2023-07-22T09:49:25;9.33;;;8.93;;
6386;SDS011;3226;42.162;24.756;2023-07-22T09:51:54;8.30;;;8.00;;
6386;SDS011;3226;42.162;24.756;2023-07-22T09:54:30;7.47;;;7.17;;
6386;SDS011;3226;42.162;24.756;2023-07-22T09:56:58;7.27;;;6.97;;
6386;SDS011;3226;42.162;24.756;2023-07-22T09:59:27;7.67;;;7.37;;
6386;SDS011;3226;42.162;24.756;2023-07-22T10:01:57;9.03;;;8.63;;
6386;SDS011;3226;42.162;24.756;2023-07-22T10:04:31;9.47;;;9.07;;
6386;SDS011;3226;42.162;24.756;2023-07-22T10:07:02;9.57;;;9.17;;
6386;SDS011;3226;42.162;24.756;2023-07-22T10:09:34;7.55;;;7.25;;
6386;SDS011;3226;42.162;24.756;2023-07-22T10:12:05;7.90;;;7.60;;
6386;SDS011;3226;42.162;24.756;2023-07-22T10:14:34;7.33;;;7.03;;
6386;SDS011;3226;42.162;24.756;2023-07-22T10:17:04;8.20;;;7.90;;
6386;SDS011;3226;42.162;24.756;2023-07-22T10:19:35;8.00;;;7.70;;
6386;SDS011;3226;42.162;24.756;2023-07-22T10:22:04;7.90;;;7.60;;
6386;SDS011;3226;42.162;24.756;2023-07-22T10:24:35;8.53;;;8.13;;
6386;SDS011;3226;42.162;24.756;2023-07-22T10:27:05;7.37;;;7.07;;
6386;SDS011;3226;42.162;24.756;2023-07-22T10:29:34;6.80;;;6.50;;
6386;SDS011;3226;42.162;24.756;2023-07-22T10:32:03;6.80;;;6.50;;
6386;SDS011;3226;42.162;24.756;2023-07-22T10:34:32;7.30;;;7.00;;
6386;SDS011;3226;42.162;24.756;2023-07-22T10:37:00;7.70;;;7.40;;
6386;SDS011;3226;42.162;24.756;2023-07-22T10:39:28;7.70;;;7.40;;
6386;SDS011;3226;42.162;24.756;2023-07-22T10:42:01;8.47;;;8.07;;
6386;SDS011;3226;42.162;24.756;2023-07-22T10:44:31;8.80;;;8.40;;
6386;SDS011;3226;42.162;24.756;2023-07-22T10:47:00;7.50;;;7.20;;
6386;SDS011;3226;42.162;24.756;2023-07-22T10:49:42;7.87;;;7.57;;
6386;SDS011;3226;42.162;24.756;2023-07-22T10:52:10;7.13;;;6.83;;
6386;SDS011;3226;42.162;24.756;2023-07-22T10:54:40;8.50;;;8.10;;
6386;SDS011;3226;42.162;24.756;2023-07-22T10:57:25;7.17;;;6.87;;
6386;SDS011;3226;42.162;24.756;2023-07-22T10:59:53;6.97;;;6.67;;
6386;SDS011;3226;42.162;24.756;2023-07-22T11:02:23;6.70;;;6.40;;
6386;SDS011;3226;42.162;24.756;2023-07-22T11:04:53;7.27;;;6.97;;
6386;SDS011;3226;42.162;24.756;2023-07-22T11:07:30;8.30;;;7.97;;
6386;SDS011;3226;42.162;24.756;2023-07-22T11:10:10;7.00;;;6.70;;
6386;SDS011;3226;42.162;24.756;2023-07-22T11:12:41;7.97;;;7.67;;
6386;SDS011;3226;42.162;24.756;2023-07-22T11:15:11;7.57;;;7.27;;
6386;SDS011;3226;42.162;24.756;2023-07-22T11:17:42;6.90;;;6.60;;
6386;SDS011;3226;42.162;24.756;2023-07-22T11:20:11;6.43;;;6.13;;
6386;SDS011;3226;42.162;24.756;2023-07-22T11:22:39;7.20;;;6.90;;
6386;SDS011;3226;42.162;24.756;2023-07-22T11:25:08;7.20;;;6.90;;
6386;SDS011;3226;42.162;24.756;2023-07-22T11:27:36;6.90;;;6.60;;
6386;SDS011;3226;42.162;24.756;2023-07-22T11:30:06;6.63;;;6.33;;
6386;SDS011;3226;42.162;24.756;2023-07-22T11:32:41;7.23;;;6.93;;
6386;SDS011;3226;42.162;24.756;2023-07-22T11:35:10;7.03;;;6.73;;
6386;SDS011;3226;42.162;24.756;2023-07-22T11:37:38;6.50;;;6.20;;
6386;SDS011;3226;42.162;24.756;2023-07-22T11:40:06;7.00;;;6.70;;
6386;SDS011;3226;42.162;24.756;2023-07-22T11:42:38;8.97;;;8.57;;
6386;SDS011;3226;42.162;24.756;2023-07-22T11:45:08;8.57;;;8.17;;
6386;SDS011;3226;42.162;24.756;2023-07-22T11:47:37;7.07;;;6.77;;
6386;SDS011;3226;42.162;24.756;2023-07-22T11:50:06;7.00;;;6.70;;
6386;SDS011;3226;42.162;24.756;2023-07-22T11:52:34;7.97;;;7.63;;
6386;SDS011;3226;42.162;24.756;2023-07-22T11:55:03;7.77;;;7.47;;
6386;SDS011;3226;42.162;24.756;2023-07-22T11:57:31;8.20;;;7.87;;
6386;SDS011;3226;42.162;24.756;2023-07-22T11:59:59;6.83;;;6.53;;
6386;SDS011;3226;42.162;24.756;2023-07-22T12:02:29;6.80;;;6.50;;
6386;SDS011;3226;42.162;24.756;2023-07-22T12:04:59;7.10;;;6.80;;
6386;SDS011;3226;42.162;24.756;2023-07-22T12:07:28;7.97;;;7.67;;
6386;SDS011;3226;42.162;24.756;2023-07-22T12:09:58;8.57;;;8.17;;
6386;SDS011;3226;42.162;24.756;2023-07-22T12:12:33;8.17;;;7.77;;
6386;SDS011;3226;42.162;24.756;2023-07-22T12:15:03;7.13;;;6.83;;
6386;SDS011;3226;42.162;24.756;2023-07-22T12:17:44;7.10;;;6.80;;
6386;SDS011;3226;42.162;24.756;2023-07-22T12:20:13;7.07;;;6.77;;
6386;SDS011;3226;42.162;24.756;2023-07-22T12:22:42;7.73;;;7.43;;
6386;SDS011;3226;42.162;24.756;2023-07-22T12:25:10;7.30;;;7.00;;
6386;SDS011;3226;42.162;24.756;2023-07-22T12:27:38;6.90;;;6.60;;
6386;SDS011;3226;42.162;24.756;2023-07-22T12:30:07;6.80;;;6.50;;
6386;SDS011;3226;42.162;24.756;2023-07-22T12:32:35;6.57;;;6.27;;
6386;SDS011;3226;42.162;24.756;2023-07-22T12:35:05;6.18;;;5.97;;
6386;SDS011;3226;42.162;24.756;2023-07-22T12:37:34;6.93;;;6.63;;
6386;SDS011;3226;42.162;24.756;2023-07-22T12:40:03;6.57;;;6.17;;
6386;SDS011;3226;42.162;24.756;2023-07-22T12:42:35;7.47;;;7.17;;
6386;SDS011;3226;42.162;24.756;2023-07-22T12:45:04;6.77;;;6.47;;
6386;SDS011;3226;42.162;24.756;2023-07-22T12:47:33;6.80;;;6.50;;
6386;SDS011;3226;42.162;24.756;2023-07-22T12:50:01;8.17;;;7.87;;
6386;SDS011;3226;42.162;24.756;2023-07-22T12:52:30;6.85;;;6.55;;
6386;SDS011;3226;42.162;24.756;2023-07-22T12:54:58;6.55;;;6.25;;
6386;SDS011;3226;42.162;24.756;2023-07-22T12:57:26;8.27;;;7.87;;
6386;SDS011;3226;42.162;24.756;2023-07-22T12:59:54;6.82;;;6.53;;
6386;SDS011;3226;42.162;24.756;2023-07-22T13:02:22;6.80;;;6.50;;
6386;SDS011;3226;42.162;24.756;2023-07-22T13:04:51;7.53;;;7.22;;
6386;SDS011;3226;42.162;24.756;2023-07-22T13:07:20;7.60;;;7.30;;
6386;SDS011;3226;42.162;24.756;2023-07-22T13:09:49;9.00;;;8.60;;
6386;SDS011;3226;42.162;24.756;2023-07-22T13:12:19;9.25;;;8.85;;
6386;SDS011;3226;42.162;24.756;2023-07-22T13:14:47;8.90;;;8.50;;
6386;SDS011;3226;42.162;24.756;2023-07-22T13:17:15;8.80;;;8.40;;
6386;SDS011;3226;42.162;24.756;2023-07-22T13:19:43;9.55;;;9.15;;
6386;SDS011;3226;42.162;24.756;2023-07-22T13:22:11;9.33;;;8.93;;
6386;SDS011;3226;42.162;24.756;2023-07-22T13:24:39;9.40;;;9.00;;
6386;SDS011;3226;42.162;24.756;2023-07-22T13:27:09;8.45;;;8.07;;
6386;SDS011;3226;42.162;24.756;2023-07-22T13:29:37;9.18;;;8.77;;
6386;SDS011;3226;42.162;24.756;2023-07-22T13:32:05;9.18;;;8.77;;
6386;SDS011;3226;42.162;24.756;2023-07-22T13:34:34;8.23;;;7.82;;
6386;SDS011;3226;42.162;24.756;2023-07-22T13:37:02;8.23;;;7.90;;
6386;SDS011;3226;42.162;24.756;2023-07-22T13:39:30;8.73;;;8.32;;
6386;SDS011;3226;42.162;24.756;2023-07-22T13:41:58;7.82;;;7.53;;
6386;SDS011;3226;42.162;24.756;2023-07-22T13:44:28;7.82;;;7.50;;
6386;SDS011;3226;42.162;24.756;2023-07-22T13:46:56;8.25;;;7.85;;
6386;SDS011;3226;42.162;24.756;2023-07-22T13:49:24;7.50;;;7.20;;
6386;SDS011;3226;42.162;24.756;2023-07-22T13:51:52;6.97;;;6.68;;
6386;SDS011;3226;42.162;24.756;2023-07-22T13:54:20;8.77;;;8.38;;
6386;SDS011;3226;42.162;24.756;2023-07-22T13:56:48;8.70;;;8.32;;
6386;SDS011;3226;42.162;24.756;2023-07-22T13:59:16;10.73;;;10.25;;
6386;SDS011;3226;42.162;24.756;2023-07-22T14:01:45;11.05;;;10.55;;
6386;SDS011;3226;42.162;24.756;2023-07-22T14:04:14;13.98;;;13.38;;
6386;SDS011;3226;42.162;24.756;2023-07-22T14:06:42;12.68;;;12.10;;
6386;SDS011;3226;42.162;24.756;2023-07-22T14:09:10;13.48;;;12.88;;
6386;SDS011;3226;42.162;24.756;2023-07-22T14:11:38;16.42;;;15.68;;
6386;SDS011;3226;42.162;24.756;2023-07-22T14:14:08;18.85;;;18.00;;
6386;SDS011;3226;42.162;24.756;2023-07-22T14:16:36;15.25;;;14.55;;
6386;SDS011;3226;42.162;24.756;2023-07-22T14:19:05;11.60;;;11.10;;
6386;SDS011;3226;42.162;24.756;2023-07-22T14:21:33;8.65;;;8.25;;
6386;SDS011;3226;42.162;24.756;2023-07-22T14:24:01;7.32;;;7.03;;
6386;SDS011;3226;42.162;24.756;2023-07-22T14:26:31;7.50;;;7.20;;
6386;SDS011;3226;42.162;24.756;2023-07-22T14:28:59;7.47;;;7.18;;
6386;SDS011;3226;42.162;24.756;2023-07-22T14:31:27;7.75;;;7.45;;
6386;SDS011;3226;42.162;24.756;2023-07-22T14:33:55;8.27;;;7.88;;
6386;SDS011;3226;42.162;24.756;2023-07-22T14:36:25;8.57;;;8.18;;
6386;SDS011;3226;42.162;24.756;2023-07-22T14:38:53;9.07;;;8.68;;
6386;SDS011;3226;42.162;24.756;2023-07-22T14:41:22;8.00;;;7.70;;
6386;SDS011;3226;42.162;24.756;2023-07-22T14:43:51;7.47;;;7.18;;
6386;SDS011;3226;42.162;24.756;2023-07-22T14:46:19;8.00;;;7.60;;
6386;SDS011;3226;42.162;24.756;2023-07-22T14:48:47;7.78;;;7.47;;
6386;SDS011;3226;42.162;24.756;2023-07-22T14:51:15;7.95;;;7.65;;
6386;SDS011;3226;42.162;24.756;2023-07-22T14:53:45;8.52;;;8.15;;
6386;SDS011;3226;42.162;24.756;2023-07-22T14:56:13;8.77;;;8.38;;
6386;SDS011;3226;42.162;24.756;2023-07-22T14:58:41;9.20;;;8.80;;
6386;SDS011;3226;42.162;24.756;2023-07-22T15:01:09;8.52;;;8.18;;
6386;SDS011;3226;42.162;24.756;2023-07-22T15:03:37;7.88;;;7.57;;
6386;SDS011;3226;42.162;24.756;2023-07-22T15:06:05;8.15;;;7.85;;
6386;SDS011;3226;42.162;24.756;2023-07-22T15:08:33;8.48;;;8.07;;